SBMN/MAO METAR and TAF weather

Enter ICAO airport designator
Station Type Date Time Source
SBMN METAR 2022/05/24 11:00 UTC NOAA

SBMN 241100Z 03003KT CAVOK 25/23 Q1013


Station Type Date Time Source
SBMN Decoded METAR 2022/05/24 11:00 UTC NOAA

Manaus Aeroporto , Brazil (SBMN) 03-09S 059-59W 84M
May 24, 2022 - 07:00 AM EDT / 2022.05.24 1100 UTC
Wind: from the NNE (030 degrees) at 3 MPH (3 KT):0
Visibility: greater than 7 mile(s):0
Temperature: 77 F (25 C)
Dew Point: 73 F (23 C)
Relative Humidity: 88%
Pressure (altimeter): 29.91 in. Hg (1013 hPa)
ob: SBMN 241100Z 03003KT CAVOK 25/23 Q1013
cycle: 11

Station Type Date Time Source
SBMN TAF 2022/05/24 12:39 UTC NOAA

TAF TAF SBMN 241000Z 2412/2424 07005KT 9999 FEW017 TX31/2417Z TN24/2423Z
BECMG 2413/2414 09008KT PROB40 2417/2418 TS SCT023 FEW023CB
RMK PEM

Example: see airport list